sensor_id;sensor_type;location;lat;lon;timestamp;pressure;altitude;pressure_sealevel;temperature;humidity
57192;BME280;43052;52.588;13.396;2022-09-01T00:01:50;101919.03;;;15.20;62.62
57192;BME280;43052;52.588;13.396;2022-09-01T00:04:19;101920.72;;;15.27;62.54
57192;BME280;43052;52.588;13.396;2022-09-01T00:06:44;101919.84;;;15.28;62.38
57192;BME280;43052;52.588;13.396;2022-09-01T00:09:13;101921.59;;;15.31;62.43
57192;BME280;43052;52.588;13.396;2022-09-01T00:11:40;101925.97;;;15.30;62.28
57192;BME280;43052;52.588;13.396;2022-09-01T00:14:07;101918.03;;;15.33;62.22
57192;BME280;43052;52.588;13.396;2022-09-01T00:16:33;101920.69;;;15.33;62.13
57192;BME280;43052;52.588;13.396;2022-09-01T00:18:59;101934.72;;;15.32;62.20
57192;BME280;43052;52.588;13.396;2022-09-01T00:21:30;101929.47;;;15.31;62.19
57192;BME280;43052;52.588;13.396;2022-09-01T00:23:56;101924.25;;;15.26;62.25
57192;BME280;43052;52.588;13.396;2022-09-01T00:26:21;101928.66;;;15.21;62.58
57192;BME280;43052;52.588;13.396;2022-09-01T00:28:47;101925.19;;;15.13;62.62
57192;BME280;43052;52.588;13.396;2022-09-01T00:31:12;101919.09;;;15.04;62.53
57192;BME280;43052;52.588;13.396;2022-09-01T00:33:41;101921.75;;;15.00;62.67
57192;BME280;43052;52.588;13.396;2022-09-01T00:36:07;101912.19;;;14.90;62.79
57192;BME280;43052;52.588;13.396;2022-09-01T00:38:32;101915.69;;;14.85;62.82
57192;BME280;43052;52.588;13.396;2022-09-01T00:40:58;101921.00;;;14.79;63.13
57192;BME280;43052;52.588;13.396;2022-09-01T00:43:42;101921.03;;;14.70;63.33
57192;BME280;43052;52.588;13.396;2022-09-01T00:46:12;101914.88;;;14.65;63.58
57192;BME280;43052;52.588;13.396;2022-09-01T00:48:38;101922.78;;;14.55;63.94
57192;BME280;43052;52.588;13.396;2022-09-01T00:51:04;101914.94;;;14.48;64.01
57192;BME280;43052;52.588;13.396;2022-09-01T00:53:30;101915.81;;;14.47;64.02
57192;BME280;43052;52.588;13.396;2022-09-01T00:55:55;101920.22;;;14.45;64.14
57192;BME280;43052;52.588;13.396;2022-09-01T00:58:21;101917.59;;;14.43;64.58
57192;BME280;43052;52.588;13.396;2022-09-01T01:00:48;101923.75;;;14.45;64.46
57192;BME280;43052;52.588;13.396;2022-09-01T01:03:16;101923.75;;;14.45;64.72
57192;BME280;43052;52.588;13.396;2022-09-01T01:05:43;101924.63;;;14.44;64.61
57192;BME280;43052;52.588;13.396;2022-09-01T01:08:19;101917.59;;;14.43;64.73
57192;BME280;43052;52.588;13.396;2022-09-01T01:10:55;101921.97;;;14.46;64.74
57192;BME280;43052;52.588;13.396;2022-09-01T01:13:20;101920.19;;;14.46;64.80
57192;BME280;43052;52.588;13.396;2022-09-01T01:15:49;101911.44;;;14.38;64.76
57192;BME280;43052;52.588;13.396;2022-09-01T01:18:15;101917.59;;;14.40;65.01
57192;BME280;43052;52.588;13.396;2022-09-01T01:20:41;101918.47;;;14.34;65.38
57192;BME280;43052;52.588;13.396;2022-09-01T01:23:35;101914.09;;;14.29;65.40
57192;BME280;43052;52.588;13.396;2022-09-01T01:26:05;101917.66;;;14.24;66.21
57192;BME280;43052;52.588;13.396;2022-09-01T01:28:33;101920.28;;;14.20;65.85
57192;BME280;43052;52.588;13.396;2022-09-01T01:31:08;101921.16;;;14.20;66.03
57192;BME280;43052;52.588;13.396;2022-09-01T01:33:41;101921.16;;;14.17;65.89
57192;BME280;43052;52.588;13.396;2022-09-01T01:36:10;101924.66;;;14.18;66.17
57192;BME280;43052;52.588;13.396;2022-09-01T01:38:39;101924.69;;;14.16;66.10
57192;BME280;43052;52.588;13.396;2022-09-01T01:41:08;101922.91;;;14.17;66.13
57192;BME280;43052;52.588;13.396;2022-09-01T01:43:33;101915.00;;;14.21;65.87
57192;BME280;43052;52.588;13.396;2022-09-01T01:45:58;101917.66;;;14.24;65.93
57192;BME280;43052;52.588;13.396;2022-09-01T01:48:27;101915.03;;;14.23;66.23
57192;BME280;43052;52.588;13.396;2022-09-01T01:50:54;101917.66;;;14.24;65.92
57192;BME280;43052;52.588;13.396;2022-09-01T01:53:20;101910.63;;;14.20;66.03
57192;BME280;43052;52.588;13.396;2022-09-01T01:55:47;101909.75;;;14.20;66.14
57192;BME280;43052;52.588;13.396;2022-09-01T01:58:14;101916.75;;;14.19;66.07
57192;BME280;43052;52.588;13.396;2022-09-01T02:00:39;101915.03;;;14.12;66.18
57192;BME280;43052;52.588;13.396;2022-09-01T02:03:09;101905.41;;;14.02;66.54
57192;BME280;43052;52.588;13.396;2022-09-01T02:05:37;101909.78;;;13.98;66.46
57192;BME280;43052;52.588;13.396;2022-09-01T02:08:05;101914.19;;;13.90;66.72
57192;BME280;43052;52.588;13.396;2022-09-01T02:10:39;101912.44;;;13.81;66.80
57192;BME280;43052;52.588;13.396;2022-09-01T02:13:06;101908.94;;;13.77;66.81
57192;BME280;43052;52.588;13.396;2022-09-01T02:15:38;101906.31;;;13.74;67.13
57192;BME280;43052;52.588;13.396;2022-09-01T02:18:15;101908.94;;;13.70;67.36
57192;BME280;43052;52.588;13.396;2022-09-01T02:20:43;101905.44;;;13.60;67.53
57192;BME280;43052;52.588;13.396;2022-09-01T02:23:09;101922.06;;;13.62;67.37
57192;BME280;43052;52.588;13.396;2022-09-01T02:25:37;101917.69;;;13.59;67.51
57192;BME280;43052;52.588;13.396;2022-09-01T02:28:04;101914.19;;;13.56;67.65
57192;BME280;43052;52.588;13.396;2022-09-01T02:30:33;101914.22;;;13.53;68.00
57192;BME280;43052;52.588;13.396;2022-09-01T02:33:00;101916.84;;;13.48;68.38
57192;BME280;43052;52.588;13.396;2022-09-01T02:35:26;101913.34;;;13.40;68.19
57192;BME280;43052;52.588;13.396;2022-09-01T02:38:00;101909.78;;;13.35;69.03
57192;BME280;43052;52.588;13.396;2022-09-01T02:40:27;101911.50;;;13.26;69.39
57192;BME280;43052;52.588;13.396;2022-09-01T02:42:55;101907.97;;;13.15;69.39
57192;BME280;43052;52.588;13.396;2022-09-01T02:45:20;101907.97;;;13.07;69.44
57192;BME280;43052;52.588;13.396;2022-09-01T02:47:46;101899.19;;;12.97;69.70
57192;BME280;43052;52.588;13.396;2022-09-01T02:50:13;101894.78;;;12.84;70.00
57192;BME280;43052;52.588;13.396;2022-09-01T02:52:41;101899.16;;;12.80;70.50
57192;BME280;43052;52.588;13.396;2022-09-01T02:55:08;101899.97;;;12.72;70.64
57192;BME280;43052;52.588;13.396;2022-09-01T02:57:33;101905.22;;;12.64;71.53
57192;BME280;43052;52.588;13.396;2022-09-01T02:59:59;101896.44;;;12.57;70.96
57192;BME280;43052;52.588;13.396;2022-09-01T03:02:24;101902.53;;;12.53;71.07
57192;BME280;43052;52.588;13.396;2022-09-01T03:04:55;101901.66;;;12.48;71.02
57192;BME280;43052;52.588;13.396;2022-09-01T03:07:21;101898.97;;;12.40;71.35
57192;BME280;43052;52.588;13.396;2022-09-01T03:09:48;101900.72;;;12.33;71.31
57192;BME280;43052;52.588;13.396;2022-09-01T03:12:13;101898.06;;;12.29;71.58
57192;BME280;43052;52.588;13.396;2022-09-01T03:14:38;101887.50;;;12.22;71.87
57192;BME280;43052;52.588;13.396;2022-09-01T03:17:04;101899.75;;;12.20;72.08
57192;BME280;43052;52.588;13.396;2022-09-01T03:19:29;101885.72;;;12.14;71.90
57192;BME280;43052;52.588;13.396;2022-09-01T03:21:58;101890.91;;;12.06;72.32
57192;BME280;43052;52.588;13.396;2022-09-01T03:24:24;101895.28;;;12.01;72.29
57192;BME280;43052;52.588;13.396;2022-09-01T03:26:50;101898.69;;;11.94;72.68
57192;BME280;43052;52.588;13.396;2022-09-01T03:29:15;101895.13;;;11.88;72.79
57192;BME280;43052;52.588;13.396;2022-09-01T03:31:40;101893.38;;;11.84;72.98
57192;BME280;43052;52.588;13.396;2022-09-01T03:34:07;101886.34;;;11.79;72.98
57192;BME280;43052;52.588;13.396;2022-09-01T03:36:35;101888.94;;;11.75;72.93
57192;BME280;43052;52.588;13.396;2022-09-01T03:39:00;101898.50;;;11.72;73.13
57192;BME280;43052;52.588;13.396;2022-09-01T03:41:28;101892.38;;;11.70;72.92
57192;BME280;43052;52.588;13.396;2022-09-01T03:43:55;101889.72;;;11.62;73.30
57192;BME280;43052;52.588;13.396;2022-09-01T03:46:22;101894.91;;;11.60;73.41
57192;BME280;43052;52.588;13.396;2022-09-01T03:48:50;101902.78;;;11.57;73.58
57192;BME280;43052;52.588;13.396;2022-09-01T03:51:18;101900.13;;;11.53;73.94
57192;BME280;43052;52.588;13.396;2022-09-01T03:53:43;101901.78;;;11.48;73.60
57192;BME280;43052;52.588;13.396;2022-09-01T03:56:10;101906.16;;;11.46;73.81
57192;BME280;43052;52.588;13.396;2022-09-01T03:58:35;101908.75;;;11.44;73.93
57192;BME280;43052;52.588;13.396;2022-09-01T04:01:00;101899.13;;;11.41;74.29
57192;BME280;43052;52.588;13.396;2022-09-01T04:03:29;101899.13;;;11.40;73.96
57192;BME280;43052;52.588;13.396;2022-09-01T04:05:56;101897.34;;;11.36;74.28
57192;BME280;43052;52.588;13.396;2022-09-01T04:08:22;101904.28;;;11.34;74.50
57192;BME280;43052;52.588;13.396;2022-09-01T04:10:56;101901.63;;;11.29;74.48
57192;BME280;43052;52.588;13.396;2022-09-01T04:13:26;101899.84;;;11.26;74.56
57192;BME280;43052;52.588;13.396;2022-09-01T04:15:52;101895.47;;;11.25;74.85
57192;BME280;43052;52.588;13.396;2022-09-01T04:18:18;101894.63;;;11.25;74.72
57192;BME280;43052;52.588;13.396;2022-09-01T04:20:49;101892.00;;;11.23;74.71
57192;BME280;43052;52.588;13.396;2022-09-01T04:23:20;101893.72;;;11.24;74.75
57192;BME280;43052;52.588;13.396;2022-09-01T04:25:59;101891.13;;;11.26;74.80
57192;BME280;43052;52.588;13.396;2022-09-01T04:28:35;101890.25;;;11.25;74.86
57192;BME280;43052;52.588;13.396;2022-09-01T04:31:03;101887.63;;;11.25;74.63
57192;BME280;43052;52.588;13.396;2022-09-01T04:33:33;101890.19;;;11.21;75.42
57192;BME280;43052;52.588;13.396;2022-09-01T04:36:04;101895.47;;;11.24;75.38
57192;BME280;43052;52.588;13.396;2022-09-01T04:38:30;101899.81;;;11.20;76.49
57192;BME280;43052;52.588;13.396;2022-09-01T04:40:56;101892.81;;;11.21;76.45
57192;BME280;43052;52.588;13.396;2022-09-01T04:43:22;101891.97;;;11.22;76.42
57192;BME280;43052;52.588;13.396;2022-09-01T04:45:47;101897.41;;;11.47;76.52
57192;BME280;43052;52.588;13.396;2022-09-01T04:48:16;101894.22;;;11.80;76.05
57192;BME280;43052;52.588;13.396;2022-09-01T04:50:41;101889.03;;;11.91;75.55
57192;BME280;43052;52.588;13.396;2022-09-01T04:53:06;101901.41;;;12.06;75.76
57192;BME280;43052;52.588;13.396;2022-09-01T04:55:39;101899.72;;;12.11;75.50
57192;BME280;43052;52.588;13.396;2022-09-01T04:58:09;101897.13;;;12.17;75.48
57192;BME280;43052;52.588;13.396;2022-09-01T05:00:38;101886.63;;;12.17;75.03
57192;BME280;43052;52.588;13.396;2022-09-01T05:03:05;101890.16;;;12.19;74.88
57192;BME280;43052;52.588;13.396;2022-09-01T05:05:42;101895.44;;;12.29;74.83
57192;BME280;43052;52.588;13.396;2022-09-01T05:08:10;101898.09;;;12.33;74.53
57192;BME280;43052;52.588;13.396;2022-09-01T05:10:41;101903.31;;;12.36;74.45
57192;BME280;43052;52.588;13.396;2022-09-01T05:13:09;101905.13;;;12.42;73.96
57192;BME280;43052;52.588;13.396;2022-09-01T05:15:37;101900.75;;;12.44;73.83
57192;BME280;43052;52.588;13.396;2022-09-01T05:18:03;101908.66;;;12.52;73.73
57192;BME280;43052;52.588;13.396;2022-09-01T05:20:36;101894.69;;;12.54;73.88
57192;BME280;43052;52.588;13.396;2022-09-01T05:23:02;101897.34;;;12.64;73.78
57192;BME280;43052;52.588;13.396;2022-09-01T05:25:28;101894.75;;;12.70;73.35
57192;BME280;43052;52.588;13.396;2022-09-01T05:27:54;101897.41;;;12.82;73.41
57192;BME280;43052;52.588;13.396;2022-09-01T05:30:19;101902.69;;;13.01;73.42
57192;BME280;43052;52.588;13.396;2022-09-01T05:32:45;101901.06;;;13.77;72.12
57192;BME280;43052;52.588;13.396;2022-09-01T05:35:13;101897.47;;;15.79;68.84
57192;BME280;43052;52.588;13.396;2022-09-01T05:37:38;101880.88;;;17.72;64.51
57192;BME280;43052;52.588;13.396;2022-09-01T05:40:07;101882.84;;;19.69;59.68
57192;BME280;43052;52.588;13.396;2022-09-01T05:42:34;101886.28;;;21.27;54.74
57192;BME280;43052;52.588;13.396;2022-09-01T05:45:03;101888.91;;;22.32;51.08
57192;BME280;43052;52.588;13.396;2022-09-01T05:47:28;101890.06;;;23.40;47.81
57192;BME280;43052;52.588;13.396;2022-09-01T05:49:53;101886.25;;;24.29;46.52
57192;BME280;43052;52.588;13.396;2022-09-01T05:52:19;101892.19;;;25.29;44.28
57192;BME280;43052;52.588;13.396;2022-09-01T05:54:48;101885.94;;;26.34;41.37
57192;BME280;43052;52.588;13.396;2022-09-01T05:57:14;101888.50;;;27.32;38.56
57192;BME280;43052;52.588;13.396;2022-09-01T05:59:39;101894.53;;;27.82;37.51
57192;BME280;43052;52.588;13.396;2022-09-01T06:02:05;101887.22;;;28.56;35.94
57192;BME280;43052;52.588;13.396;2022-09-01T06:04:32;101892.81;;;29.50;34.10
57192;BME280;43052;52.588;13.396;2022-09-01T06:06:58;101888.56;;;30.12;32.07
57192;BME280;43052;52.588;13.396;2022-09-01T06:09:23;101897.03;;;30.57;31.07
57192;BME280;43052;52.588;13.396;2022-09-01T06:11:49;101891.47;;;30.35;30.24
57192;BME280;43052;52.588;13.396;2022-09-01T06:14:16;101890.34;;;30.50;30.45
57192;BME280;43052;52.588;13.396;2022-09-01T06:16:42;101885.19;;;31.33;29.63
57192;BME280;43052;52.588;13.396;2022-09-01T06:19:09;101883.88;;;32.08;27.86
57192;BME280;43052;52.588;13.396;2022-09-01T06:21:34;101883.88;;;32.42;27.45
57192;BME280;43052;52.588;13.396;2022-09-01T06:24:00;101885.91;;;32.84;26.83
57192;BME280;43052;52.588;13.396;2022-09-01T06:26:28;101886.56;;;33.41;25.77
57192;BME280;43052;52.588;13.396;2022-09-01T06:28:56;101881.19;;;33.94;24.93
57192;BME280;43052;52.588;13.396;2022-09-01T06:31:24;101888.81;;;34.10;23.79
57192;BME280;43052;52.588;13.396;2022-09-01T06:33:51;101893.44;;;34.19;24.96
57192;BME280;43052;52.588;13.396;2022-09-01T06:36:21;101895.38;;;34.98;23.57
57192;BME280;43052;52.588;13.396;2022-09-01T06:38:51;101891.47;;;35.70;22.53
57192;BME280;43052;52.588;13.396;2022-09-01T06:41:18;101895.31;;;36.25;22.20
57192;BME280;43052;52.588;13.396;2022-09-01T06:43:49;101897.34;;;36.68;21.55
57192;BME280;43052;52.588;13.396;2022-09-01T06:46:18;101897.88;;;37.18;20.87
57192;BME280;43052;52.588;13.396;2022-09-01T06:48:44;101899.47;;;37.29;20.61
57192;BME280;43052;52.588;13.396;2022-09-01T06:51:13;101898.97;;;36.33;20.27
57192;BME280;43052;52.588;13.396;2022-09-01T06:53:40;101911.47;;;36.26;21.63
57192;BME280;43052;52.588;13.396;2022-09-01T06:56:06;101903.03;;;36.75;20.86
57192;BME280;43052;52.588;13.396;2022-09-01T06:58:34;101906.34;;;37.15;19.93
57192;BME280;43052;52.588;13.396;2022-09-01T07:01:04;101907.03;;;36.63;20.44
57192;BME280;43052;52.588;13.396;2022-09-01T07:03:30;101907.59;;;37.39;20.38
57192;BME280;43052;52.588;13.396;2022-09-01T07:05:58;101908.25;;;38.12;19.11
57192;BME280;43052;52.588;13.396;2022-09-01T07:08:23;101901.84;;;38.97;18.70
57192;BME280;43052;52.588;13.396;2022-09-01T07:10:50;101906.69;;;39.36;17.80
57192;BME280;43052;52.588;13.396;2022-09-01T07:13:21;101905.97;;;39.67;17.91
57192;BME280;43052;52.588;13.396;2022-09-01T07:15:50;101910.81;;;40.53;16.74
57192;BME280;43052;52.588;13.396;2022-09-01T07:18:17;101915.59;;;40.51;16.59
57192;BME280;43052;52.588;13.396;2022-09-01T07:20:45;101914.72;;;40.27;16.39
57192;BME280;43052;52.588;13.396;2022-09-01T07:23:12;101910.53;;;40.39;16.78
57192;BME280;43052;52.588;13.396;2022-09-01T07:25:42;101915.22;;;41.32;16.34
57192;BME280;43052;52.588;13.396;2022-09-01T07:28:09;101911.75;;;42.06;15.87
57192;BME280;43052;52.588;13.396;2022-09-01T07:30:40;101906.84;;;42.53;14.74
57192;BME280;43052;52.588;13.396;2022-09-01T07:33:06;101911.00;;;42.86;14.74
57192;BME280;43052;52.588;13.396;2022-09-01T07:35:36;101914.72;;;42.78;13.59
57192;BME280;43052;52.588;13.396;2022-09-01T07:38:02;101909.59;;;41.48;15.01
57192;BME280;43052;52.588;13.396;2022-09-01T07:40:29;101912.00;;;41.66;14.87
57192;BME280;43052;52.588;13.396;2022-09-01T07:42:54;101914.53;;;41.53;14.97
57192;BME280;43052;52.588;13.396;2022-09-01T07:45:21;101914.00;;;41.88;15.00
57192;BME280;43052;52.588;13.396;2022-09-01T07:47:47;101915.63;;;42.85;13.84
57192;BME280;43052;52.588;13.396;2022-09-01T07:50:13;101916.66;;;42.78;13.48
57192;BME280;43052;52.588;13.396;2022-09-01T07:52:40;101922.31;;;42.39;14.24
57192;BME280;43052;52.588;13.396;2022-09-01T07:55:15;101918.03;;;42.73;13.45
57192;BME280;43052;52.588;13.396;2022-09-01T07:57:42;101919.44;;;43.06;13.90
57192;BME280;43052;52.588;13.396;2022-09-01T08:00:14;101916.47;;;43.86;12.43
57192;BME280;43052;52.588;13.396;2022-09-01T08:02:42;101920.78;;;44.44;11.59
57192;BME280;43052;52.588;13.396;2022-09-01T08:05:11;101927.63;;;44.13;11.98
57192;BME280;43052;52.588;13.396;2022-09-01T08:07:37;101936.00;;;43.91;12.57
57192;BME280;43052;52.588;13.396;2022-09-01T08:10:04;101922.59;;;44.17;11.79
57192;BME280;43052;52.588;13.396;2022-09-01T08:12:30;101928.84;;;44.04;11.78
57192;BME280;43052;52.588;13.396;2022-09-01T08:14:56;101929.53;;;44.54;12.15
57192;BME280;43052;52.588;13.396;2022-09-01T08:17:21;101931.25;;;45.90;10.59
57192;BME280;43052;52.588;13.396;2022-09-01T08:19:46;101926.13;;;45.93;10.66
57192;BME280;43052;52.588;13.396;2022-09-01T08:22:13;101920.28;;;45.09;10.84
57192;BME280;43052;52.588;13.396;2022-09-01T08:24:38;101925.81;;;45.36;11.36
57192;BME280;43052;52.588;13.396;2022-09-01T08:27:04;101928.91;;;44.59;11.39
57192;BME280;43052;52.588;13.396;2022-09-01T08:29:29;101925.41;;;43.60;11.87
57192;BME280;43052;52.588;13.396;2022-09-01T08:31:55;101926.31;;;43.67;12.15
57192;BME280;43052;52.588;13.396;2022-09-01T08:34:24;101927.22;;;44.78;11.59
57192;BME280;43052;52.588;13.396;2022-09-01T08:36:49;101925.53;;;44.15;12.20
57192;BME280;43052;52.588;13.396;2022-09-01T08:39:14;101921.56;;;45.00;11.98
57192;BME280;43052;52.588;13.396;2022-09-01T08:42:14;101918.63;;;45.35;10.57
57192;BME280;43052;52.588;13.396;2022-09-01T08:44:55;101926.84;;;44.19;11.71
57192;BME280;43052;52.588;13.396;2022-09-01T08:47:22;101924.22;;;44.59;12.29
57192;BME280;43052;52.588;13.396;2022-09-01T08:49:48;101924.50;;;44.98;10.80
57192;BME280;43052;52.588;13.396;2022-09-01T08:52:36;101918.72;;;44.04;11.48
57192;BME280;43052;52.588;13.396;2022-09-01T08:55:25;101924.75;;;43.29;12.01
57192;BME280;43052;52.588;13.396;2022-09-01T08:57:54;101912.88;;;42.64;12.55
57192;BME280;43052;52.588;13.396;2022-09-01T09:00:24;101910.88;;;42.36;12.54
57192;BME280;43052;52.588;13.396;2022-09-01T09:05:56;101899.88;;;44.76;12.13
57192;BME280;43052;52.588;13.396;2022-09-01T09:11:05;101901.19;;;47.42;9.59
57192;BME280;43052;52.588;13.396;2022-09-01T09:13:34;101905.78;;;47.48;9.69
57192;BME280;43052;52.588;13.396;2022-09-01T09:16:22;101902.13;;;46.85;8.93
57192;BME280;43052;52.588;13.396;2022-09-01T09:18:52;101906.38;;;46.03;10.09
57192;BME280;43052;52.588;13.396;2022-09-01T09:21:35;101893.88;;;46.78;9.84
57192;BME280;43052;52.588;13.396;2022-09-01T09:24:09;101895.69;;;47.79;9.04
57192;BME280;43052;52.588;13.396;2022-09-01T09:26:35;101897.38;;;47.61;9.75
57192;BME280;43052;52.588;13.396;2022-09-01T09:29:00;101897.19;;;48.73;8.59
57192;BME280;43052;52.588;13.396;2022-09-01T09:31:37;101902.44;;;50.05;7.70
57192;BME280;43052;52.588;13.396;2022-09-01T09:36:51;101896.06;;;49.28;8.12
57192;BME280;43052;52.588;13.396;2022-09-01T09:39:17;101891.66;;;45.24;9.55
57192;BME280;43052;52.588;13.396;2022-09-01T09:41:43;101896.13;;;43.24;11.09
57192;BME280;43052;52.588;13.396;2022-09-01T09:44:27;101896.41;;;44.41;10.81
57192;BME280;43052;52.588;13.396;2022-09-01T09:46:54;101893.13;;;44.99;9.91
57192;BME280;43052;52.588;13.396;2022-09-01T09:49:27;101893.13;;;42.23;11.42
57192;BME280;43052;52.588;13.396;2022-09-01T09:52:12;101887.69;;;43.03;11.12
57192;BME280;43052;52.588;13.396;2022-09-01T09:54:57;101890.16;;;43.48;10.69
57192;BME280;43052;52.588;13.396;2022-09-01T09:57:23;101879.50;;;43.67;10.29
57192;BME280;43052;52.588;13.396;2022-09-01T10:02:33;101892.56;;;40.37;12.78
57192;BME280;43052;52.588;13.396;2022-09-01T10:05:00;101878.19;;;41.66;11.71
57192;BME280;43052;52.588;13.396;2022-09-01T10:07:29;101890.47;;;43.60;10.12
57192;BME280;43052;52.588;13.396;2022-09-01T10:09:57;101890.59;;;42.95;10.24
57192;BME280;43052;52.588;13.396;2022-09-01T10:12:24;101874.94;;;42.74;11.26
57192;BME280;43052;52.588;13.396;2022-09-01T10:14:54;101877.25;;;44.19;10.23
57192;BME280;43052;52.588;13.396;2022-09-01T10:17:35;101880.16;;;44.73;10.06
57192;BME280;43052;52.588;13.396;2022-09-01T10:20:23;101883.69;;;41.66;11.38
57192;BME280;43052;52.588;13.396;2022-09-01T10:22:50;101883.81;;;37.75;14.09
57192;BME280;43052;52.588;13.396;2022-09-01T10:25:27;101874.31;;;34.81;16.82
57192;BME280;43052;52.588;13.396;2022-09-01T10:28:00;101870.91;;;32.80;19.44
57192;BME280;43052;52.588;13.396;2022-09-01T10:30:28;101880.06;;;31.52;19.89
57192;BME280;43052;52.588;13.396;2022-09-01T10:32:56;101881.56;;;30.09;21.52
57192;BME280;43052;52.588;13.396;2022-09-01T10:35:26;101869.34;;;28.70;22.89
57192;BME280;43052;52.588;13.396;2022-09-01T10:37:52;101876.44;;;27.09;25.35
57192;BME280;43052;52.588;13.396;2022-09-01T10:42:48;101872.44;;;26.36;25.76
57192;BME280;43052;52.588;13.396;2022-09-01T10:45:29;101875.75;;;26.73;25.24
57192;BME280;43052;52.588;13.396;2022-09-01T10:47:56;101866.84;;;26.88;25.08
57192;BME280;43052;52.588;13.396;2022-09-01T10:50:25;101868.91;;;26.99;25.01
57192;BME280;43052;52.588;13.396;2022-09-01T10:52:52;101862.28;;;26.90;25.51
57192;BME280;43052;52.588;13.396;2022-09-01T10:55:22;101864.69;;;26.47;26.14
57192;BME280;43052;52.588;13.396;2022-09-01T11:00:45;101869.78;;;26.52;25.67
57192;BME280;43052;52.588;13.396;2022-09-01T11:08:21;101864.34;;;24.97;27.29
57192;BME280;43052;52.588;13.396;2022-09-01T11:10:54;101849.63;;;24.50;27.37
57192;BME280;43052;52.588;13.396;2022-09-01T11:13:30;101860.25;;;24.32;27.49
57192;BME280;43052;52.588;13.396;2022-09-01T11:16:36;101854.91;;;24.32;27.38
57192;BME280;43052;52.588;13.396;2022-09-01T11:23:10;101850.72;;;24.84;27.50
57192;BME280;43052;52.588;13.396;2022-09-01T11:30:15;101846.34;;;25.55;26.21
57192;BME280;43052;52.588;13.396;2022-09-01T11:32:45;101853.91;;;25.64;25.93
57192;BME280;43052;52.588;13.396;2022-09-01T11:35:17;101845.47;;;25.54;26.02
57192;BME280;43052;52.588;13.396;2022-09-01T11:37:47;101851.00;;;25.51;25.93
57192;BME280;43052;52.588;13.396;2022-09-01T11:40:19;101853.72;;;25.49;26.90
57192;BME280;43052;52.588;13.396;2022-09-01T11:42:45;101860.69;;;25.17;27.78
57192;BME280;43052;52.588;13.396;2022-09-01T11:45:20;101859.56;;;25.03;28.73
57192;BME280;43052;52.588;13.396;2022-09-01T11:47:50;101858.25;;;25.12;28.88
57192;BME280;43052;52.588;13.396;2022-09-01T11:50:26;101855.91;;;24.87;29.40
57192;BME280;43052;52.588;13.396;2022-09-01T11:53:05;101859.25;;;24.73;30.00
57192;BME280;43052;52.588;13.396;2022-09-01T11:55:41;101852.22;;;24.51;30.06
57192;BME280;43052;52.588;13.396;2022-09-01T11:58:28;101858.22;;;24.37;30.63
57192;BME280;43052;52.588;13.396;2022-09-01T12:00:57;101852.72;;;24.21;30.86
57192;BME280;43052;52.588;13.396;2022-09-01T12:03:35;101855.63;;;24.36;30.99
57192;BME280;43052;52.588;13.396;2022-09-01T12:06:03;101854.41;;;24.62;30.79
57192;BME280;43052;52.588;13.396;2022-09-01T12:08:33;101850.00;;;24.80;29.99
57192;BME280;43052;52.588;13.396;2022-09-01T12:11:10;101854.91;;;24.90;30.43
57192;BME280;43052;52.588;13.396;2022-09-01T12:13:38;101842.41;;;24.90;30.30
57192;BME280;43052;52.588;13.396;2022-09-01T12:16:06;101851.72;;;24.62;30.24
57192;BME280;43052;52.588;13.396;2022-09-01T12:18:35;101852.22;;;24.32;30.87
57192;BME280;43052;52.588;13.396;2022-09-01T12:21:05;101848.75;;;24.11;31.13
57192;BME280;43052;52.588;13.396;2022-09-01T12:23:34;101845.34;;;24.07;31.27
57192;BME280;43052;52.588;13.396;2022-09-01T12:26:04;101846.78;;;24.15;31.24
57192;BME280;43052;52.588;13.396;2022-09-01T12:28:31;101839.16;;;24.26;31.11
57192;BME280;43052;52.588;13.396;2022-09-01T12:30:59;101834.47;;;24.31;31.22
57192;BME280;43052;52.588;13.396;2022-09-01T12:33:25;101835.59;;;24.06;31.08
57192;BME280;43052;52.588;13.396;2022-09-01T12:41:44;101840.28;;;23.39;32.60
57192;BME280;43052;52.588;13.396;2022-09-01T12:44:32;101829.00;;;23.10;32.79
57192;BME280;43052;52.588;13.396;2022-09-01T12:47:02;101834.28;;;22.67;33.54
57192;BME280;43052;52.588;13.396;2022-09-01T12:49:37;101830.38;;;22.54;33.47
57192;BME280;43052;52.588;13.396;2022-09-01T12:54:37;101838.69;;;22.91;32.96
57192;BME280;43052;52.588;13.396;2022-09-01T12:57:04;101827.47;;;22.82;33.18
57192;BME280;43052;52.588;13.396;2022-09-01T12:59:29;101820.19;;;23.08;32.75
57192;BME280;43052;52.588;13.396;2022-09-01T13:01:55;101816.31;;;23.58;32.02
57192;BME280;43052;52.588;13.396;2022-09-01T13:06:46;101808.88;;;24.64;30.96
57192;BME280;43052;52.588;13.396;2022-09-01T13:09:11;101809.19;;;24.94;30.32
57192;BME280;43052;52.588;13.396;2022-09-01T13:11:37;101817.84;;;24.99;30.12
57192;BME280;43052;52.588;13.396;2022-09-01T13:14:02;101816.44;;;24.92;29.82
57192;BME280;43052;52.588;13.396;2022-09-01T13:16:28;101809.88;;;24.61;29.33
57192;BME280;43052;52.588;13.396;2022-09-01T13:18:53;101812.06;;;24.15;29.58
57192;BME280;43052;52.588;13.396;2022-09-01T13:21:18;101815.97;;;23.87;30.07
57192;BME280;43052;52.588;13.396;2022-09-01T13:23:43;101809.50;;;23.72;29.92
57192;BME280;43052;52.588;13.396;2022-09-01T13:26:10;101807.91;;;23.68;30.43
57192;BME280;43052;52.588;13.396;2022-09-01T13:28:35;101808.00;;;23.66;30.92
57192;BME280;43052;52.588;13.396;2022-09-01T13:31:03;101807.09;;;23.66;31.34